Time;durP1;ratioP1;P1;durP2;ratioP2;P2;SDS_P1;SDS_P2;PMS_P1;PMS_P2;Temp;Humidity;BMP_temperature;BMP_pressure;BME280_temperature;BME280_humidity;BME280_pressure;Samples;Min_cycle;Max_cycle;Signal;HPM_P1;HPM_P2
2023/07/25 00:01:09;;;;;;;13.60;5.93;;;;;;;;;;6272857;22;20007;-66
2023/07/25 00:03:35;;;;;;;10.48;5.60;;;;;;;;;;6272050;22;20038;-66
2023/07/25 00:06:03;;;;;;;10.18;5.30;;;;;;;;;;6272855;22;20066;-67
2023/07/25 00:08:30;;;;;;;13.25;6.28;;;;;;;;;;6246464;22;20094;-67
2023/07/25 00:10:56;;;;;;;8.45;5.40;;;;;;;;;;6275085;22;20426;-67
2023/07/25 00:13:22;;;;;;;9.38;5.85;;;;;;;;;;6272774;22;20011;-67
2023/07/25 00:15:49;;;;;;;13.10;6.25;;;;;;;;;;6274860;22;20007;-66
2023/07/25 00:18:15;;;;;;;10.80;5.68;;;;;;;;;;6274385;22;20080;-66
2023/07/25 00:20:40;;;;;;;10.55;6.07;;;;;;;;;;6274750;22;20379;-67
2023/07/25 00:23:06;;;;;;;11.95;6.13;;;;;;;;;;6274724;22;20011;-67
2023/07/25 00:25:33;;;;;;;9.60;5.10;;;;;;;;;;6274604;22;20244;-67
2023/07/25 00:27:59;;;;;;;12.02;6.15;;;;;;;;;;6274669;22;20346;-67
2023/07/25 00:30:25;;;;;;;11.50;5.80;;;;;;;;;;6274531;22;20325;-67
2023/07/25 00:32:51;;;;;;;8.55;5.30;;;;;;;;;;6246758;22;20015;-67
2023/07/25 00:35:17;;;;;;;11.52;5.60;;;;;;;;;;6274724;22;20338;-67
2023/07/25 00:37:42;;;;;;;13.75;5.78;;;;;;;;;;6272905;22;20202;-67
2023/07/25 00:40:08;;;;;;;10.73;5.90;;;;;;;;;;6272849;22;20101;-67
2023/07/25 00:42:34;;;;;;;10.13;5.45;;;;;;;;;;6243336;23;20010;-67
2023/07/25 00:45:00;;;;;;;13.77;6.72;;;;;;;;;;6216903;23;20016;-67
2023/07/25 00:47:26;;;;;;;11.18;5.75;;;;;;;;;;6216925;23;20031;-66
2023/07/25 00:49:54;;;;;;;15.73;6.53;;;;;;;;;;6243584;23;20012;-67
2023/07/25 00:52:20;;;;;;;12.85;5.88;;;;;;;;;;6216822;23;20012;-67
2023/07/25 00:54:50;;;;;;;11.10;6.43;;;;;;;;;;6242379;23;20008;-67
2023/07/25 00:57:18;;;;;;;10.05;5.70;;;;;;;;;;6239257;23;20016;-67
2023/07/25 00:59:44;;;;;;;12.95;5.40;;;;;;;;;;6241074;23;20397;-67
2023/07/25 01:02:11;;;;;;;12.07;5.70;;;;;;;;;;6214015;23;20008;-67
2023/07/25 01:04:37;;;;;;;10.82;5.47;;;;;;;;;;6242186;23;20363;-66
2023/07/25 01:07:04;;;;;;;10.45;5.90;;;;;;;;;;6215861;23;20000;-67
2023/07/25 01:09:45;;;;;;;9.98;5.72;;;;;;;;;;6240199;23;20047;-67
2023/07/25 01:12:11;;;;;;;12.27;5.78;;;;;;;;;;6242678;23;20401;-67
2023/07/25 01:14:38;;;;;;;13.45;5.75;;;;;;;;;;6112089;23;20477;-67
2023/07/25 01:17:13;;;;;;;11.52;6.05;;;;;;;;;;6215280;23;20405;-67
2023/07/25 01:19:42;;;;;;;12.85;6.50;;;;;;;;;;6114633;23;20008;-67
2023/07/25 01:22:09;;;;;;;10.88;6.25;;;;;;;;;;6244631;23;20338;-67
2023/07/25 01:24:37;;;;;;;12.60;6.10;;;;;;;;;;6244032;23;20007;-67
2023/07/25 01:27:03;;;;;;;11.90;5.95;;;;;;;;;;6244855;23;20008;-67
2023/07/25 01:29:29;;;;;;;13.55;5.15;;;;;;;;;;6243199;23;20000;-66
2023/07/25 01:31:54;;;;;;;11.18;6.18;;;;;;;;;;6216670;23;20012;-67
2023/07/25 01:34:20;;;;;;;10.88;6.05;;;;;;;;;;6215583;23;20053;-67
2023/07/25 01:36:46;;;;;;;15.23;6.30;;;;;;;;;;6216110;23;20016;-67
2023/07/25 01:39:11;;;;;;;15.90;6.38;;;;;;;;;;6242769;23;20445;-67
2023/07/25 01:41:39;;;;;;;17.23;7.18;;;;;;;;;;6215600;23;20345;-67
2023/07/25 01:44:05;;;;;;;13.60;7.13;;;;;;;;;;6215466;23;20038;-66
2023/07/25 01:46:30;;;;;;;17.05;6.97;;;;;;;;;;6215983;23;20003;-67
2023/07/25 01:48:56;;;;;;;14.38;7.80;;;;;;;;;;6242612;23;20009;-67
2023/07/25 01:51:22;;;;;;;22.50;9.30;;;;;;;;;;6242685;23;20050;-66
2023/07/25 01:53:48;;;;;;;18.50;7.53;;;;;;;;;;6242358;23;20023;-67
2023/07/25 01:56:13;;;;;;;14.35;8.15;;;;;;;;;;6215461;23;20023;-67
2023/07/25 01:58:39;;;;;;;16.55;6.90;;;;;;;;;;6242269;23;20012;-67
2023/07/25 02:01:05;;;;;;;26.20;8.23;;;;;;;;;;6215594;23;20071;-67
2023/07/25 02:03:30;;;;;;;20.63;7.85;;;;;;;;;;6242490;23;20019;-67
2023/07/25 02:05:56;;;;;;;22.80;8.10;;;;;;;;;;6242521;23;20461;-67
2023/07/25 02:08:22;;;;;;;23.42;8.25;;;;;;;;;;6215709;23;20011;-67
2023/07/25 02:10:48;;;;;;;14.73;8.02;;;;;;;;;;6242198;23;20008;-67
2023/07/25 02:13:13;;;;;;;16.15;8.18;;;;;;;;;;6242122;23;20008;-67
2023/07/25 02:15:39;;;;;;;20.77;7.45;;;;;;;;;;6242614;23;20070;-67
2023/07/25 02:18:05;;;;;;;15.05;7.35;;;;;;;;;;6215763;23;20346;-67
2023/07/25 02:20:31;;;;;;;17.02;7.50;;;;;;;;;;6212687;23;20008;-68
2023/07/25 02:22:58;;;;;;;16.88;7.45;;;;;;;;;;6212752;23;20023;-66
2023/07/25 02:25:25;;;;;;;14.70;7.50;;;;;;;;;;6239933;23;20012;-67
2023/07/25 02:27:51;;;;;;;16.65;7.85;;;;;;;;;;6240877;23;20023;-67
2023/07/25 02:30:16;;;;;;;22.63;9.73;;;;;;;;;;6241299;23;19996;-67
2023/07/25 02:32:42;;;;;;;17.85;7.95;;;;;;;;;;6237629;23;20030;-67
2023/07/25 02:35:08;;;;;;;23.85;8.52;;;;;;;;;;6241561;23;20004;-67
2023/07/25 02:37:34;;;;;;;18.15;8.70;;;;;;;;;;6240533;23;20071;-66
2023/07/25 02:40:00;;;;;;;17.58;9.32;;;;;;;;;;6215348;23;20022;-67
2023/07/25 02:42:25;;;;;;;21.55;8.80;;;;;;;;;;6242516;23;20039;-67
2023/07/25 02:44:51;;;;;;;15.32;8.15;;;;;;;;;;6242300;23;20307;-66
2023/07/25 02:47:17;;;;;;;18.48;9.52;;;;;;;;;;6242334;23;20004;-68
2023/07/25 02:49:43;;;;;;;20.92;9.27;;;;;;;;;;6242626;23;20040;-67
2023/07/25 02:52:09;;;;;;;19.50;9.23;;;;;;;;;;6214996;23;20425;-67
2023/07/25 02:54:34;;;;;;;15.10;7.60;;;;;;;;;;6214822;23;20019;-67
2023/07/25 02:57:00;;;;;;;15.07;7.53;;;;;;;;;;6242107;23;20019;-67
2023/07/25 02:59:26;;;;;;;15.98;7.32;;;;;;;;;;6112890;23;20010;-67
2023/07/25 03:01:51;;;;;;;16.95;8.40;;;;;;;;;;6215634;23;20039;-68
2023/07/25 03:04:17;;;;;;;20.20;7.38;;;;;;;;;;6213256;23;20012;-67
2023/07/25 03:06:43;;;;;;;19.83;7.47;;;;;;;;;;6212873;23;20083;-67
2023/07/25 03:09:08;;;;;;;14.75;7.88;;;;;;;;;;6239123;23;20008;-69
2023/07/25 03:11:34;;;;;;;14.60;6.97;;;;;;;;;;6237883;23;20023;-66
2023/07/25 03:14:00;;;;;;;16.92;8.10;;;;;;;;;;6211965;23;20020;-66
2023/07/25 03:16:26;;;;;;;17.33;7.45;;;;;;;;;;6212622;23;20079;-67
2023/07/25 03:18:51;;;;;;;20.98;7.70;;;;;;;;;;6240066;23;20079;-67
2023/07/25 03:21:17;;;;;;;17.65;7.47;;;;;;;;;;6240257;23;20012;-67
2023/07/25 03:23:43;;;;;;;21.17;7.53;;;;;;;;;;6238704;23;20035;-66
2023/07/25 03:26:08;;;;;;;13.52;6.65;;;;;;;;;;6240365;23;20039;-67
2023/07/25 03:28:34;;;;;;;18.27;8.02;;;;;;;;;;6236673;23;20039;-67
2023/07/25 03:31:00;;;;;;;13.52;7.05;;;;;;;;;;6240527;23;20018;-66
2023/07/25 03:33:27;;;;;;;14.32;6.72;;;;;;;;;;6241627;23;20019;-67
2023/07/25 03:35:54;;;;;;;14.57;6.57;;;;;;;;;;6240348;23;20019;-68
2023/07/25 03:38:20;;;;;;;16.15;7.30;;;;;;;;;;6241436;23;20008;-67
2023/07/25 03:40:46;;;;;;;19.70;7.68;;;;;;;;;;6240217;23;20019;-68
2023/07/25 03:43:12;;;;;;;18.13;6.95;;;;;;;;;;6241203;23;20078;-66
2023/07/25 03:45:38;;;;;;;13.02;6.63;;;;;;;;;;6243465;23;20011;-66
2023/07/25 03:48:04;;;;;;;24.42;7.65;;;;;;;;;;6243808;23;20337;-67
2023/07/25 03:50:30;;;;;;;20.52;7.22;;;;;;;;;;6243701;23;20028;-67
2023/07/25 03:52:59;;;;;;;18.67;6.63;;;;;;;;;;6242336;23;20016;-67
2023/07/25 03:55:25;;;;;;;18.58;7.53;;;;;;;;;;6217056;23;20023;-67
2023/07/25 03:57:51;;;;;;;22.25;7.30;;;;;;;;;;6243850;23;20004;-67
2023/07/25 04:00:17;;;;;;;17.23;7.00;;;;;;;;;;6243371;23;20016;-67
2023/07/25 04:02:45;;;;;;;18.00;7.13;;;;;;;;;;6243278;23;20004;-67
2023/07/25 04:05:11;;;;;;;19.05;7.03;;;;;;;;;;6243668;23;20030;-67
2023/07/25 04:07:37;;;;;;;15.75;7.60;;;;;;;;;;6245795;23;20008;-67
2023/07/25 04:10:03;;;;;;;15.55;6.80;;;;;;;;;;6218509;23;20035;-67
2023/07/25 04:12:28;;;;;;;15.10;6.03;;;;;;;;;;6115612;23;20083;-66
2023/07/25 04:14:54;;;;;;;17.42;6.53;;;;;;;;;;6219467;23;20039;-67
2023/07/25 04:17:20;;;;;;;28.90;7.63;;;;;;;;;;6219513;23;20016;-67
2023/07/25 04:19:46;;;;;;;19.90;6.22;;;;;;;;;;6219399;23;19996;-67
2023/07/25 04:22:12;;;;;;;11.45;5.85;;;;;;;;;;6218993;23;20016;-67
2023/07/25 04:24:38;;;;;;;12.48;5.68;;;;;;;;;;6218734;23;20016;-67
2023/07/25 04:27:04;;;;;;;19.50;6.88;;;;;;;;;;6218927;23;20011;-66
2023/07/25 04:29:30;;;;;;;17.63;6.35;;;;;;;;;;6243617;23;20007;-66
2023/07/25 04:31:56;;;;;;;16.35;6.75;;;;;;;;;;6243300;23;20012;-65
2023/07/25 04:34:22;;;;;;;16.17;6.40;;;;;;;;;;6243614;23;20135;-66
2023/07/25 04:36:48;;;;;;;14.80;6.22;;;;;;;;;;6245913;23;20550;-66
2023/07/25 04:39:14;;;;;;;12.35;7.15;;;;;;;;;;6218971;23;20004;-66
2023/07/25 04:41:39;;;;;;;20.05;6.32;;;;;;;;;;6218750;23;20016;-66
2023/07/25 04:44:06;;;;;;;14.60;6.15;;;;;;;;;;6218521;23;20066;-66
2023/07/25 04:46:32;;;;;;;14.80;6.80;;;;;;;;;;6218895;23;20079;-66
2023/07/25 04:48:58;;;;;;;14.88;7.13;;;;;;;;;;6245632;23;20040;-66
2023/07/25 04:51:23;;;;;;;15.30;6.13;;;;;;;;;;6218648;23;20008;-65
2023/07/25 04:53:50;;;;;;;11.43;5.95;;;;;;;;;;6244024;23;20438;-66
2023/07/25 04:56:15;;;;;;;21.50;6.40;;;;;;;;;;6244215;23;20448;-66
2023/07/25 04:58:41;;;;;;;16.83;8.02;;;;;;;;;;6243387;23;20012;-66
2023/07/25 05:01:08;;;;;;;16.75;6.65;;;;;;;;;;6218342;23;20497;-67
2023/07/25 05:03:33;;;;;;;17.83;5.95;;;;;;;;;;6245832;23;20008;-66
2023/07/25 05:05:59;;;;;;;15.65;6.07;;;;;;;;;;6218652;23;20417;-68
2023/07/25 05:08:25;;;;;;;16.90;5.88;;;;;;;;;;6244992;23;20005;-65
2023/07/25 05:10:52;;;;;;;16.33;6.60;;;;;;;;;;6243618;23;20509;-65
2023/07/25 05:13:18;;;;;;;13.82;6.53;;;;;;;;;;6243400;23;20007;-67
2023/07/25 05:15:44;;;;;;;20.02;5.85;;;;;;;;;;6244454;23;20008;-67
2023/07/25 05:18:10;;;;;;;23.42;6.63;;;;;;;;;;6244697;23;20012;-66
2023/07/25 05:20:36;;;;;;;18.42;6.05;;;;;;;;;;6244343;23;20014;-66
2023/07/25 05:23:02;;;;;;;18.05;6.20;;;;;;;;;;6243481;23;20058;-65
2023/07/25 05:25:27;;;;;;;16.05;6.10;;;;;;;;;;6243198;23;20011;-65
2023/07/25 05:27:53;;;;;;;14.35;6.15;;;;;;;;;;6241922;23;20476;-65
2023/07/25 05:30:19;;;;;;;22.17;6.63;;;;;;;;;;6243674;23;20015;-65
2023/07/25 05:32:45;;;;;;;17.20;7.25;;;;;;;;;;6241140;23;20087;-65
2023/07/25 05:35:11;;;;;;;16.38;5.90;;;;;;;;;;6243541;23;20011;-65
2023/07/25 05:37:38;;;;;;;15.85;6.30;;;;;;;;;;6215736;23;20446;-67
2023/07/25 05:40:05;;;;;;;11.88;6.10;;;;;;;;;;6241521;23;20393;-66
2023/07/25 05:42:31;;;;;;;14.65;6.05;;;;;;;;;;6244496;23;20056;-65
2023/07/25 05:44:59;;;;;;;12.63;5.78;;;;;;;;;;6244072;23;20000;-67
2023/07/25 05:47:24;;;;;;;14.10;5.78;;;;;;;;;;6244563;23;20004;-67
2023/07/25 05:49:50;;;;;;;18.60;5.82;;;;;;;;;;6244304;23;20341;-66
2023/07/25 05:52:16;;;;;;;15.45;6.40;;;;;;;;;;6243749;23;20398;-66
2023/07/25 05:54:44;;;;;;;17.83;7.47;;;;;;;;;;6243609;23;20389;-66
2023/07/25 05:57:11;;;;;;;13.70;6.03;;;;;;;;;;6243751;23;20099;-66
2023/07/25 05:59:37;;;;;;;13.60;6.28;;;;;;;;;;6217093;23;20039;-66
2023/07/25 06:02:05;;;;;;;13.52;6.03;;;;;;;;;;6241556;23;20030;-66
2023/07/25 06:04:31;;;;;;;11.50;6.30;;;;;;;;;;6112807;23;20426;-65
2023/07/25 06:06:57;;;;;;;17.73;5.88;;;;;;;;;;6241521;23;20066;-65
2023/07/25 06:09:22;;;;;;;14.57;6.45;;;;;;;;;;6242419;23;20023;-66
2023/07/25 06:11:48;;;;;;;13.35;6.28;;;;;;;;;;6244042;23;20003;-66
2023/07/25 06:14:14;;;;;;;12.65;5.95;;;;;;;;;;6243129;23;20059;-66
2023/07/25 06:16:40;;;;;;;12.57;5.68;;;;;;;;;;6241730;23;20326;-65
2023/07/25 06:19:06;;;;;;;18.92;7.18;;;;;;;;;;6243343;23;20430;-65
2023/07/25 06:21:32;;;;;;;14.40;5.68;;;;;;;;;;6243551;23;20053;-65
2023/07/25 06:23:57;;;;;;;16.88;6.72;;;;;;;;;;6215636;23;20004;-65
2023/07/25 06:26:23;;;;;;;16.77;6.30;;;;;;;;;;6243513;23;20004;-65
2023/07/25 06:28:49;;;;;;;16.48;6.90;;;;;;;;;;6215644;23;20016;-65
2023/07/25 06:31:15;;;;;;;12.73;6.40;;;;;;;;;;6243176;23;20041;-65
2023/07/25 06:33:40;;;;;;;17.50;5.78;;;;;;;;;;6242829;23;20022;-65
2023/07/25 06:36:06;;;;;;;12.73;5.93;;;;;;;;;;6243130;23;20000;-65
2023/07/25 06:38:32;;;;;;;10.50;5.97;;;;;;;;;;6216105;23;20327;-65
2023/07/25 06:40:58;;;;;;;14.52;5.70;;;;;;;;;;6243088;23;20015;-64
2023/07/25 06:43:23;;;;;;;12.50;5.38;;;;;;;;;;6243289;23;20000;-66
2023/07/25 06:45:51;;;;;;;14.27;5.18;;;;;;;;;;6238441;23;20188;-65
2023/07/25 06:48:16;;;;;;;17.98;6.18;;;;;;;;;;6243260;23;20338;-66
2023/07/25 06:50:42;;;;;;;14.88;5.78;;;;;;;;;;6243873;23;20016;-66
2023/07/25 06:53:08;;;;;;;11.10;5.72;;;;;;;;;;6243336;23;20004;-66
2023/07/25 06:55:34;;;;;;;13.30;5.93;;;;;;;;;;6243370;23;20012;-66
2023/07/25 06:58:01;;;;;;;15.70;7.28;;;;;;;;;;6244360;23;20422;-66
2023/07/25 07:00:27;;;;;;;18.05;6.85;;;;;;;;;;6244381;23;20174;-67
2023/07/25 07:02:53;;;;;;;14.35;5.95;;;;;;;;;;6243398;23;20439;-65
2023/07/25 07:05:19;;;;;;;14.93;5.63;;;;;;;;;;6244123;23;20283;-65
2023/07/25 07:07:45;;;;;;;11.02;5.47;;;;;;;;;;6243236;23;20044;-66
2023/07/25 07:10:10;;;;;;;16.67;6.72;;;;;;;;;;6243277;23;20023;-66
2023/07/25 07:12:37;;;;;;;19.90;6.07;;;;;;;;;;6243635;23;20012;-67
2023/07/25 07:15:03;;;;;;;13.88;6.20;;;;;;;;;;6243562;23;20079;-66
2023/07/25 07:17:29;;;;;;;15.38;5.50;;;;;;;;;;6243691;23;20042;-66
2023/07/25 07:19:58;;;;;;;9.75;5.18;;;;;;;;;;6242719;23;19996;-66
2023/07/25 07:22:24;;;;;;;12.73;5.35;;;;;;;;;;6142385;23;20035;-65
2023/07/25 07:24:50;;;;;;;9.90;5.60;;;;;;;;;;6243514;23;20012;-67
2023/07/25 07:27:17;;;;;;;14.82;5.85;;;;;;;;;;6243599;23;20008;-66
2023/07/25 07:29:42;;;;;;;19.13;6.13;;;;;;;;;;6242944;23;20004;-66
2023/07/25 07:32:08;;;;;;;14.85;6.05;;;;;;;;;;6242775;23;20082;-65
2023/07/25 07:34:34;;;;;;;14.43;5.68;;;;;;;;;;6243397;23;20000;-65
2023/07/25 07:36:59;;;;;;;12.23;6.28;;;;;;;;;;6243257;23;20358;-66
2023/07/25 07:39:26;;;;;;;15.05;5.63;;;;;;;;;;6241046;23;20418;-67
2023/07/25 07:41:52;;;;;;;11.55;6.10;;;;;;;;;;6243313;23;20456;-66
2023/07/25 07:44:18;;;;;;;13.32;6.03;;;;;;;;;;6243121;23;20092;-66
2023/07/25 07:46:44;;;;;;;13.75;6.40;;;;;;;;;;6243679;23;20374;-66
2023/07/25 07:49:09;;;;;;;13.80;6.00;;;;;;;;;;6243271;23;20009;-66
2023/07/25 07:51:35;;;;;;;17.65;5.70;;;;;;;;;;6243642;23;20342;-66
2023/07/25 07:54:02;;;;;;;10.75;5.57;;;;;;;;;;6242827;23;20016;-67
2023/07/25 07:56:28;;;;;;;17.80;5.75;;;;;;;;;;6241762;23;19996;-67
2023/07/25 07:58:53;;;;;;;13.80;5.97;;;;;;;;;;6243104;23;20004;-66
2023/07/25 08:01:23;;;;;;;13.13;5.85;;;;;;;;;;6242921;23;20063;-66
2023/07/25 08:03:50;;;;;;;12.88;5.78;;;;;;;;;;6243281;23;20446;-66
2023/07/25 08:06:16;;;;;;;17.05;5.97;;;;;;;;;;6243597;23;20039;-66
2023/07/25 08:08:42;;;;;;;17.77;5.13;;;;;;;;;;6243280;23;20023;-66
2023/07/25 08:11:08;;;;;;;11.48;5.47;;;;;;;;;;6243432;23;20018;-66
2023/07/25 08:13:33;;;;;;;11.45;5.43;;;;;;;;;;6242823;23;20008;-66
2023/07/25 08:16:00;;;;;;;9.77;5.60;;;;;;;;;;6241820;23;20027;-65
2023/07/25 08:18:26;;;;;;;13.32;5.88;;;;;;;;;;6243471;23;20079;-66
2023/07/25 08:20:56;;;;;;;12.80;5.45;;;;;;;;;;6243658;23;20077;-66
2023/07/25 08:23:23;;;;;;;11.73;5.43;;;;;;;;;;6243688;23;20024;-66
2023/07/25 08:25:49;;;;;;;19.20;6.05;;;;;;;;;;6241210;23;20387;-66
2023/07/25 08:28:15;;;;;;;10.35;5.13;;;;;;;;;;6241319;23;20373;-66
2023/07/25 08:30:42;;;;;;;11.73;5.30;;;;;;;;;;6242810;23;20015;-65
2023/07/25 08:33:08;;;;;;;16.55;6.03;;;;;;;;;;6243708;23;20000;-66
2023/07/25 08:35:34;;;;;;;12.35;5.78;;;;;;;;;;6218112;23;20099;-67
2023/07/25 08:37:59;;;;;;;12.80;5.65;;;;;;;;;;6244713;23;20001;-67
2023/07/25 08:40:25;;;;;;;10.63;5.50;;;;;;;;;;6245175;23;20008;-67
2023/07/25 08:42:54;;;;;;;11.35;5.25;;;;;;;;;;6245451;23;20323;-66
2023/07/25 08:45:21;;;;;;;10.38;5.32;;;;;;;;;;6244105;23;20440;-66
2023/07/25 08:47:50;;;;;;;15.43;5.18;;;;;;;;;;6243028;23;20014;-65
2023/07/25 08:50:16;;;;;;;16.40;6.40;;;;;;;;;;6245634;23;20106;-65
2023/07/25 08:52:52;;;;;;;16.25;5.93;;;;;;;;;;6242594;22;20004;-66
2023/07/25 08:55:19;;;;;;;12.75;5.50;;;;;;;;;;6306225;22;20003;-64
2023/07/25 08:57:46;;;;;;;12.00;5.45;;;;;;;;;;6306599;22;20077;-65
2023/07/25 09:00:15;;;;;;;12.93;5.72;;;;;;;;;;6306535;22;20107;-66
2023/07/25 09:02:41;;;;;;;13.40;5.60;;;;;;;;;;6306228;22;20007;-65
2023/07/25 09:05:07;;;;;;;10.50;5.13;;;;;;;;;;6306756;22;20078;-67
2023/07/25 09:07:33;;;;;;;15.02;5.50;;;;;;;;;;6305554;22;20003;-68
2023/07/25 09:09:59;;;;;;;15.07;5.43;;;;;;;;;;6305733;22;20017;-68
2023/07/25 09:12:25;;;;;;;13.90;5.32;;;;;;;;;;6306673;22;20329;-67
2023/07/25 09:14:52;;;;;;;11.43;5.28;;;;;;;;;;6305999;22;20015;-66
2023/07/25 09:17:17;;;;;;;13.15;5.72;;;;;;;;;;6306640;22;20068;-65
2023/07/25 09:19:43;;;;;;;10.38;5.45;;;;;;;;;;6279054;22;20485;-66
2023/07/25 09:22:31;;;;;;;10.88;5.82;;;;;;;;;;6305391;22;20031;-65
2023/07/25 09:24:58;;;;;;;13.00;5.47;;;;;;;;;;6306428;22;20015;-66
2023/07/25 09:27:25;;;;;;;18.25;5.35;;;;;;;;;;6306867;22;20317;-66
2023/07/25 09:29:52;;;;;;;9.57;4.97;;;;;;;;;;6305928;22;20017;-65
2023/07/25 09:32:24;;;;;;;16.73;6.15;;;;;;;;;;6304230;22;20502;-67
2023/07/25 09:35:01;;;;;;;10.90;6.10;;;;;;;;;;6278749;22;20086;-67
2023/07/25 09:37:30;;;;;;;11.68;5.38;;;;;;;;;;6306437;22;20073;-65
2023/07/25 09:39:56;;;;;;;13.57;5.85;;;;;;;;;;6306218;22;20003;-66
2023/07/25 09:42:23;;;;;;;16.15;5.35;;;;;;;;;;6278256;22;20012;-66
2023/07/25 09:44:51;;;;;;;10.38;5.72;;;;;;;;;;6306338;22;20003;-66
2023/07/25 09:47:26;;;;;;;12.25;6.18;;;;;;;;;;6305233;22;20153;-65
2023/07/25 09:49:53;;;;;;;20.88;5.38;;;;;;;;;;6305252;22;20039;-66
2023/07/25 09:52:19;;;;;;;11.57;5.20;;;;;;;;;;6305036;22;20007;-65
2023/07/25 09:54:45;;;;;;;12.95;5.82;;;;;;;;;;6279639;22;20007;-67
2023/07/25 09:57:11;;;;;;;12.13;5.30;;;;;;;;;;6306673;22;20173;-67
2023/07/25 09:59:37;;;;;;;17.15;5.53;;;;;;;;;;6304837;22;20049;-66
2023/07/25 10:02:07;;;;;;;13.13;5.60;;;;;;;;;;6278721;22;20049;-66
2023/07/25 10:04:38;;;;;;;15.75;5.75;;;;;;;;;;6279366;22;20323;-66
2023/07/25 10:07:05;;;;;;;12.25;5.13;;;;;;;;;;6306135;22;20011;-66
2023/07/25 10:09:30;;;;;;;13.27;5.78;;;;;;;;;;6305381;22;20049;-66
2023/07/25 10:11:56;;;;;;;13.57;5.35;;;;;;;;;;6306031;22;20007;-67
2023/07/25 10:14:22;;;;;;;11.02;5.00;;;;;;;;;;6305573;22;20372;-67
2023/07/25 10:16:49;;;;;;;11.82;5.43;;;;;;;;;;6306439;22;20126;-67
2023/07/25 10:19:15;;;;;;;14.07;5.20;;;;;;;;;;6305449;22;20026;-66
2023/07/25 10:21:50;;;;;;;13.00;5.35;;;;;;;;;;6305596;22;20015;-66
2023/07/25 10:24:16;;;;;;;15.65;5.65;;;;;;;;;;6305566;22;20102;-68
2023/07/25 10:26:59;;;;;;;14.00;5.38;;;;;;;;;;6305660;22;20064;-67
2023/07/25 10:29:36;;;;;;;18.20;5.10;;;;;;;;;;6305567;22;20018;-66
2023/07/25 10:32:02;;;;;;;9.65;4.82;;;;;;;;;;6305251;22;20090;-66
2023/07/25 10:34:49;;;;;;;13.88;5.57;;;;;;;;;;6305780;22;20090;-66
2023/07/25 10:37:29;;;;;;;15.13;5.80;;;;;;;;;;6304999;22;20011;-67
2023/07/25 10:40:15;;;;;;;16.50;6.20;;;;;;;;;;6305484;22;20322;-66
2023/07/25 10:42:47;;;;;;;14.18;5.40;;;;;;;;;;6305413;22;20019;-67
2023/07/25 10:45:59;;;;;;;12.48;5.60;;;;;;;;;;6306231;22;20011;-67
2023/07/25 10:48:30;;;;;;;18.05;5.60;;;;;;;;;;6282312;22;20073;-67
2023/07/25 10:50:57;;;;;;;15.38;5.82;;;;;;;;;;6305391;22;20090;-68
2023/07/25 10:53:24;;;;;;;10.57;5.30;;;;;;;;;;6277700;22;20439;-66
2023/07/25 10:56:05;;;;;;;17.83;5.38;;;;;;;;;;6305468;22;20035;-67
2023/07/25 10:58:31;;;;;;;10.52;5.20;;;;;;;;;;6305151;22;20003;-67
2023/07/25 11:00:58;;;;;;;11.85;5.40;;;;;;;;;;6304883;22;20007;-67
2023/07/25 11:03:37;;;;;;;17.35;5.20;;;;;;;;;;6305017;22;20003;-67
2023/07/25 11:06:08;;;;;;;12.57;5.35;;;;;;;;;;6304729;22;20037;-67
2023/07/25 11:08:36;;;;;;;17.80;5.70;;;;;;;;;;6303268;22;20007;-67
2023/07/25 11:11:03;;;;;;;15.93;6.03;;;;;;;;;;6304523;22;20250;-66
2023/07/25 11:13:40;;;;;;;11.70;5.35;;;;;;;;;;6305813;22;20015;-67
2023/07/25 11:16:08;;;;;;;14.23;5.47;;;;;;;;;;6305115;22;20018;-67
2023/07/25 11:18:37;;;;;;;14.00;5.20;;;;;;;;;;6305567;22;20498;-67
2023/07/25 11:21:05;;;;;;;14.50;5.57;;;;;;;;;;6305941;22;20007;-67
2023/07/25 11:23:31;;;;;;;10.40;4.93;;;;;;;;;;6306180;22;20417;-67
2023/07/25 11:26:00;;;;;;;10.73;5.03;;;;;;;;;;6306281;22;20007;-67
2023/07/25 11:28:26;;;;;;;12.55;5.78;;;;;;;;;;6305633;22;20007;-66
2023/07/25 11:30:52;;;;;;;14.23;5.28;;;;;;;;;;6305687;22;20437;-68
2023/07/25 11:33:19;;;;;;;14.07;5.22;;;;;;;;;;6305267;22;20042;-67
2023/07/25 11:35:45;;;;;;;16.23;5.55;;;;;;;;;;6305516;22;20011;-66
2023/07/25 11:38:11;;;;;;;13.02;4.70;;;;;;;;;;6305953;22;20003;-66
2023/07/25 11:40:40;;;;;;;15.50;5.40;;;;;;;;;;6306027;22;20061;-68
2023/07/25 11:43:13;;;;;;;13.20;5.05;;;;;;;;;;6303773;22;20019;-66
2023/07/25 11:45:39;;;;;;;12.65;5.28;;;;;;;;;;6305542;22;20003;-66
2023/07/25 11:48:09;;;;;;;14.75;5.07;;;;;;;;;;6252513;22;20069;-66
2023/07/25 11:50:35;;;;;;;13.77;4.75;;;;;;;;;;6305710;22;20014;-67
2023/07/25 11:53:02;;;;;;;14.77;4.97;;;;;;;;;;6305891;22;20380;-67
2023/07/25 11:55:28;;;;;;;19.67;5.15;;;;;;;;;;6305665;22;20011;-66
2023/07/25 11:57:55;;;;;;;14.05;4.75;;;;;;;;;;6305435;22;19999;-66
2023/07/25 12:00:22;;;;;;;20.08;4.80;;;;;;;;;;6305421;22;20341;-67
2023/07/25 12:02:48;;;;;;;12.23;4.68;;;;;;;;;;6305458;22;20007;-67
2023/07/25 12:05:30;;;;;;;17.30;4.85;;;;;;;;;;6306111;22;20448;-66
2023/07/25 12:08:03;;;;;;;17.95;4.55;;;;;;;;;;6280365;22;20078;-66
2023/07/25 12:10:36;;;;;;;13.77;4.72;;;;;;;;;;6308268;22;20007;-67
2023/07/25 12:13:03;;;;;;;14.27;5.10;;;;;;;;;;6307290;22;20026;-66
2023/07/25 12:15:51;;;;;;;10.93;4.57;;;;;;;;;;6307892;22;20007;-66
2023/07/25 12:18:27;;;;;;;12.63;4.88;;;;;;;;;;6294956;22;20004;-66
2023/07/25 12:21:00;;;;;;;13.38;5.57;;;;;;;;;;6305727;22;20508;-67
2023/07/25 12:23:37;;;;;;;12.85;4.70;;;;;;;;;;6307229;22;20034;-67
2023/07/25 12:26:04;;;;;;;10.02;5.10;;;;;;;;;;6307383;22;20065;-67
2023/07/25 12:28:41;;;;;;;17.27;6.90;;;;;;;;;;6306894;22;20010;-67
2023/07/25 12:31:07;;;;;;;13.23;4.90;;;;;;;;;;6307126;22;20014;-66
2023/07/25 12:33:34;;;;;;;18.35;5.13;;;;;;;;;;6306416;22;20011;-66
2023/07/25 12:36:00;;;;;;;19.42;5.13;;;;;;;;;;6306716;22;20064;-66
2023/07/25 12:38:26;;;;;;;14.02;4.68;;;;;;;;;;6306948;22;20014;-66
2023/07/25 12:40:52;;;;;;;18.13;5.18;;;;;;;;;;6306648;22;20003;-67
2023/07/25 12:43:19;;;;;;;11.68;5.05;;;;;;;;;;6306451;22;20337;-67
2023/07/25 12:45:45;;;;;;;13.38;6.28;;;;;;;;;;6279155;22;20007;-67
2023/07/25 12:48:11;;;;;;;16.95;4.72;;;;;;;;;;6307006;22;20015;-68
2023/07/25 12:50:39;;;;;;;12.93;4.90;;;;;;;;;;6306538;22;20006;-67
2023/07/25 12:53:05;;;;;;;15.30;5.18;;;;;;;;;;6305771;22;20449;-67
2023/07/25 12:55:31;;;;;;;16.70;4.65;;;;;;;;;;6306689;22;20004;-67
2023/07/25 12:57:57;;;;;;;13.38;5.28;;;;;;;;;;6304781;22;20018;-67
2023/07/25 13:00:22;;;;;;;12.73;4.80;;;;;;;;;;6278911;22;20011;-67
2023/07/25 13:02:48;;;;;;;13.98;5.20;;;;;;;;;;6306223;22;20003;-67
2023/07/25 13:05:14;;;;;;;13.60;5.00;;;;;;;;;;6305570;22;20015;-67
2023/07/25 13:07:40;;;;;;;14.02;4.95;;;;;;;;;;6305750;22;20487;-67
2023/07/25 13:10:06;;;;;;;10.60;4.75;;;;;;;;;;6306469;22;20018;-66
2023/07/25 13:12:33;;;;;;;12.65;4.90;;;;;;;;;;6307242;22;20425;-67
2023/07/25 13:14:59;;;;;;;15.57;4.22;;;;;;;;;;6306860;22;20056;-68
2023/07/25 13:17:25;;;;;;;13.20;4.60;;;;;;;;;;6306963;22;20034;-67
2023/07/25 13:19:51;;;;;;;16.83;5.28;;;;;;;;;;6306669;22;20000;-68
2023/07/25 13:22:17;;;;;;;15.73;5.05;;;;;;;;;;6306795;22;20014;-67
2023/07/25 13:24:43;;;;;;;9.98;5.07;;;;;;;;;;6306464;22;20045;-67
2023/07/25 13:27:09;;;;;;;10.73;4.80;;;;;;;;;;6306950;22;20429;-66
2023/07/25 13:29:35;;;;;;;13.13;5.25;;;;;;;;;;6306161;22;19999;-67
2023/07/25 13:32:01;;;;;;;10.77;4.50;;;;;;;;;;6305084;22;20037;-68
2023/07/25 13:34:27;;;;;;;9.02;4.28;;;;;;;;;;6277741;22;20014;-67
2023/07/25 13:36:53;;;;;;;10.30;4.70;;;;;;;;;;6304392;22;20007;-66
2023/07/25 13:39:19;;;;;;;9.63;4.80;;;;;;;;;;6306898;22;20074;-67
2023/07/25 13:41:46;;;;;;;10.75;4.45;;;;;;;;;;6305092;22;20011;-67
2023/07/25 13:44:12;;;;;;;10.25;4.80;;;;;;;;;;6306811;22;20429;-66
2023/07/25 13:46:37;;;;;;;8.60;4.50;;;;;;;;;;6306544;22;20003;-67
2023/07/25 13:49:03;;;;;;;10.20;4.63;;;;;;;;;;6306451;22;20012;-67
2023/07/25 13:51:29;;;;;;;10.18;4.68;;;;;;;;;;6306619;22;20060;-67
2023/07/25 13:53:55;;;;;;;12.20;5.00;;;;;;;;;;6306690;22;20050;-67
2023/07/25 13:56:21;;;;;;;10.73;5.30;;;;;;;;;;6306456;22;20086;-67
2023/07/25 13:58:47;;;;;;;9.50;4.57;;;;;;;;;;6306838;22;20022;-67
2023/07/25 14:01:13;;;;;;;7.32;4.50;;;;;;;;;;6306639;22;20370;-67
2023/07/25 14:03:39;;;;;;;12.85;5.32;;;;;;;;;;6303716;22;20094;-67
2023/07/25 14:06:05;;;;;;;12.38;4.95;;;;;;;;;;6304203;22;20031;-67
2023/07/25 14:08:31;;;;;;;9.68;4.13;;;;;;;;;;6304490;22;20014;-66
2023/07/25 14:10:57;;;;;;;8.55;4.65;;;;;;;;;;6304434;22;20441;-66
2023/07/25 14:13:23;;;;;;;14.85;5.15;;;;;;;;;;6276130;22;20022;-67
2023/07/25 14:15:50;;;;;;;9.55;4.88;;;;;;;;;;6304312;22;20010;-66
2023/07/25 14:18:15;;;;;;;9.57;4.18;;;;;;;;;;6304892;22;19999;-67
2023/07/25 14:20:41;;;;;;;9.70;4.90;;;;;;;;;;6305072;22;20007;-67
2023/07/25 14:23:07;;;;;;;11.70;5.22;;;;;;;;;;6305097;22;20011;-67
2023/07/25 14:25:33;;;;;;;8.00;4.43;;;;;;;;;;6304970;22;20060;-67
2023/07/25 14:27:58;;;;;;;14.77;4.78;;;;;;;;;;6304506;22;20462;-67
2023/07/25 14:30:25;;;;;;;13.73;5.00;;;;;;;;;;6304348;22;20038;-66